createdAt,value
2023-02-02T00:00:47.868Z,0.00
2023-02-02T00:01:47.702Z,0.00
2023-02-02T00:02:47.961Z,0.00
2023-02-02T00:03:47.721Z,0.00
2023-02-02T00:04:47.872Z,0.00
2023-02-02T00:05:47.669Z,0.00
2023-02-02T00:06:47.967Z,0.00
2023-02-02T00:07:47.643Z,0.00
2023-02-02T00:08:47.934Z,0.00
2023-02-02T00:09:47.622Z,0.00
2023-02-02T00:10:47.789Z,0.00
2023-02-02T00:11:47.661Z,0.00
2023-02-02T00:12:47.796Z,0.00
2023-02-02T00:13:47.722Z,0.00
2023-02-02T00:14:47.579Z,0.00
2023-02-02T00:15:47.735Z,0.00
2023-02-02T00:16:47.601Z,0.00
2023-02-02T00:17:47.659Z,0.00
2023-02-02T00:18:47.778Z,0.00
2023-02-02T00:19:47.487Z,0.00
2023-02-02T00:20:47.600Z,0.00
2023-02-02T00:21:47.456Z,0.00
2023-02-02T00:22:47.671Z,0.00
2023-02-02T00:23:47.447Z,0.00
2023-02-02T00:24:47.625Z,0.00
2023-02-02T00:25:47.431Z,0.00
2023-02-02T00:26:47.684Z,0.00
2023-02-02T00:27:47.386Z,0.00
2023-02-02T00:28:47.662Z,0.00
2023-02-02T00:29:47.373Z,0.00
2023-02-02T00:30:47.507Z,0.00
2023-02-02T00:31:47.397Z,0.00
2023-02-02T00:32:47.473Z,0.00
2023-02-02T00:33:47.365Z,0.00
2023-02-02T00:34:47.563Z,0.00
2023-02-02T00:35:47.306Z,0.00
2023-02-02T00:36:47.509Z,0.00
2023-02-02T00:37:47.250Z,0.00
2023-02-02T00:38:47.578Z,0.00
2023-02-02T00:39:47.410Z,0.00
2023-02-02T00:40:47.240Z,0.00
2023-02-02T00:41:47.301Z,0.00
2023-02-02T00:42:47.203Z,0.00
2023-02-02T00:43:47.440Z,0.00
2023-02-02T00:44:47.298Z,0.00
2023-02-02T00:45:47.236Z,0.00
2023-02-02T00:46:47.253Z,0.00
2023-02-02T00:47:47.158Z,0.00
2023-02-02T00:48:47.275Z,0.00
2023-02-02T00:49:47.107Z,0.00
2023-02-02T00:50:47.334Z,0.00
2023-02-02T00:51:47.070Z,0.00
2023-02-02T00:52:47.315Z,0.00
2023-02-02T00:53:49.873Z,0.00
2023-02-02T00:54:47.216Z,0.00
2023-02-02T00:55:47.061Z,0.00
2023-02-02T00:56:47.268Z,0.00
2023-02-02T00:57:46.993Z,0.00
2023-02-02T00:58:47.131Z,0.00
2023-02-02T00:59:47.064Z,0.00
2023-02-02T01:00:47.198Z,0.00
2023-02-02T01:01:47.031Z,0.00
2023-02-02T01:02:47.061Z,0.00
2023-02-02T01:03:46.925Z,0.00
2023-02-02T01:04:47.165Z,0.00
2023-02-02T01:05:47.212Z,0.00
2023-02-02T01:06:46.947Z,0.00
2023-02-02T01:07:47.052Z,0.00
2023-02-02T01:08:46.890Z,0.00
2023-02-02T01:09:47.094Z,0.00
2023-02-02T01:10:46.869Z,0.00
2023-02-02T01:11:46.915Z,0.00
2023-02-02T01:12:46.853Z,0.00
2023-02-02T01:13:47.058Z,0.00
2023-02-02T01:14:46.817Z,0.00
2023-02-02T01:15:46.946Z,0.00
2023-02-02T01:16:46.872Z,0.00
2023-02-02T01:17:46.891Z,0.00
2023-02-02T01:18:46.795Z,0.00
2023-02-02T01:19:46.959Z,0.00
2023-02-02T01:20:46.735Z,0.00
2023-02-02T01:21:46.872Z,0.00
2023-02-02T01:22:46.736Z,0.00
2023-02-02T01:23:46.788Z,0.00
2023-02-02T01:24:46.679Z,0.00
2023-02-02T01:25:46.799Z,0.00
2023-02-02T01:26:46.831Z,0.00
2023-02-02T01:27:46.645Z,0.00
2023-02-02T01:28:46.890Z,0.00
2023-02-02T01:29:47.420Z,0.00
2023-02-02T01:30:46.812Z,0.00
2023-02-02T01:31:46.597Z,0.00
2023-02-02T01:32:46.760Z,0.00
2023-02-02T01:33:46.552Z,0.00
2023-02-02T01:34:46.668Z,0.00
2023-02-02T01:35:46.545Z,0.00
2023-02-02T01:36:46.710Z,0.00
2023-02-02T01:37:46.513Z,0.00
2023-02-02T01:38:46.594Z,0.00
2023-02-02T01:39:46.502Z,0.00
2023-02-02T01:40:46.631Z,0.00
2023-02-02T01:41:46.436Z,0.00
2023-02-02T01:42:46.589Z,0.00
2023-02-02T01:43:46.449Z,0.00
2023-02-02T01:44:46.575Z,0.00
2023-02-02T01:45:46.447Z,0.00
2023-02-02T01:46:46.589Z,0.00
2023-02-02T01:47:46.375Z,0.00
2023-02-02T01:48:46.580Z,0.00
2023-02-02T01:49:46.400Z,0.00
2023-02-02T01:50:46.592Z,0.00
2023-02-02T01:51:46.359Z,0.00
2023-02-02T01:52:46.630Z,0.00
2023-02-02T01:53:46.297Z,0.00
2023-02-02T01:54:46.450Z,0.00
2023-02-02T01:55:46.266Z,0.00
2023-02-02T01:56:46.469Z,0.00
2023-02-02T01:57:46.246Z,0.00
2023-02-02T01:58:46.445Z,0.00
2023-02-02T01:59:46.214Z,0.00
2023-02-02T02:00:47.154Z,0.00
2023-02-02T02:01:46.200Z,0.00
2023-02-02T02:02:46.547Z,0.00
2023-02-02T02:03:46.175Z,0.00
2023-02-02T02:04:46.309Z,0.00
2023-02-02T02:05:46.148Z,0.00
2023-02-02T02:06:46.937Z,0.00
2023-02-02T02:07:46.123Z,0.00
2023-02-02T02:08:46.306Z,0.00
2023-02-02T02:09:46.080Z,0.00
2023-02-02T02:10:46.314Z,0.00
2023-02-02T02:11:46.098Z,0.00
2023-02-02T02:12:46.351Z,0.00
2023-02-02T02:13:46.336Z,0.00
2023-02-02T02:14:46.051Z,0.00
2023-02-02T02:15:46.165Z,0.00
2023-02-02T02:16:46.053Z,0.00
2023-02-02T02:17:46.164Z,0.00
2023-02-02T02:18:46.003Z,0.00
2023-02-02T02:19:46.152Z,0.00
2023-02-02T02:20:45.982Z,0.00
2023-02-02T02:21:46.131Z,0.00
2023-02-02T02:22:45.919Z,0.00
2023-02-02T02:23:46.101Z,0.00
2023-02-02T02:24:45.908Z,0.00
2023-02-02T02:25:46.008Z,0.00
2023-02-02T02:26:45.973Z,0.00
2023-02-02T02:27:46.083Z,0.00
2023-02-02T02:28:45.866Z,0.00
2023-02-02T02:29:47.071Z,0.00
2023-02-02T02:30:45.927Z,0.00
2023-02-02T02:31:46.134Z,0.00
2023-02-02T02:32:45.845Z,0.00
2023-02-02T02:33:46.068Z,0.00
2023-02-02T02:34:45.812Z,0.00
2023-02-02T02:35:46.084Z,0.00
2023-02-02T02:36:45.739Z,0.00
2023-02-02T02:37:46.034Z,0.00
2023-02-02T02:38:45.713Z,0.00
2023-02-02T02:39:45.896Z,0.00
2023-02-02T02:40:45.695Z,0.00
2023-02-02T02:41:45.811Z,0.00
2023-02-02T02:42:45.695Z,0.00
2023-02-02T02:43:45.827Z,0.00
2023-02-02T02:44:45.648Z,0.00
2023-02-02T02:45:45.853Z,0.00
2023-02-02T02:46:45.614Z,0.00
2023-02-02T02:47:45.761Z,0.00
2023-02-02T02:48:45.615Z,0.00
2023-02-02T02:49:45.820Z,0.00
2023-02-02T02:50:45.686Z,0.00
2023-02-02T02:51:45.597Z,0.00
2023-02-02T02:52:45.662Z,0.00
2023-02-02T02:53:45.588Z,0.00
2023-02-02T02:54:45.583Z,0.00
2023-02-02T02:55:45.758Z,0.00
2023-02-02T02:56:45.490Z,0.00
2023-02-02T02:57:45.618Z,0.00
2023-02-02T02:58:45.454Z,0.00
2023-02-02T02:59:45.632Z,0.00
2023-02-02T03:00:45.528Z,0.00
2023-02-02T03:01:45.483Z,0.00
2023-02-02T03:02:45.628Z,0.00
2023-02-02T03:03:45.432Z,0.00
2023-02-02T03:04:45.461Z,0.00
2023-02-02T03:05:45.419Z,0.00
2023-02-02T03:06:45.454Z,0.00
2023-02-02T03:07:45.367Z,0.00
2023-02-02T03:08:45.385Z,0.00
2023-02-02T03:09:45.331Z,0.00
2023-02-02T03:10:45.513Z,0.00
2023-02-02T03:11:45.331Z,0.00
2023-02-02T03:12:45.415Z,0.00
2023-02-02T03:13:45.295Z,0.00
2023-02-02T03:14:45.447Z,0.00
2023-02-02T03:15:45.315Z,0.00
2023-02-02T03:16:45.423Z,0.00
2023-02-02T03:17:45.249Z,0.00
2023-02-02T03:18:45.258Z,0.00
2023-02-02T03:19:45.197Z,0.00
2023-02-02T03:20:45.384Z,0.00
2023-02-02T03:21:45.410Z,0.00
2023-02-02T03:22:45.195Z,0.00
2023-02-02T03:23:45.159Z,0.00
2023-02-02T03:24:45.284Z,0.00
2023-02-02T03:25:45.142Z,0.00
2023-02-02T03:26:45.324Z,0.00
2023-02-02T03:27:45.148Z,0.00
2023-02-02T03:28:45.198Z,0.00
2023-02-02T03:29:45.083Z,0.00
2023-02-02T03:30:45.177Z,0.00
2023-02-02T03:31:45.109Z,0.00
2023-02-02T03:32:45.157Z,0.00
2023-02-02T03:33:45.057Z,0.00
2023-02-02T03:34:45.138Z,0.00
2023-02-02T03:35:45.014Z,0.00
2023-02-02T03:36:45.106Z,0.00
2023-02-02T03:37:44.976Z,0.00
2023-02-02T03:38:45.916Z,0.00
2023-02-02T03:39:45.055Z,0.00
2023-02-02T03:40:44.988Z,0.00
2023-02-02T03:41:44.912Z,0.00
2023-02-02T03:42:44.987Z,0.00
2023-02-02T03:43:44.908Z,0.00
2023-02-02T03:44:44.910Z,0.00
2023-02-02T03:45:44.930Z,0.00
2023-02-02T03:46:44.970Z,0.00
2023-02-02T03:47:44.843Z,0.00
2023-02-02T03:48:44.981Z,0.00
2023-02-02T03:49:44.820Z,0.00
2023-02-02T03:50:44.853Z,0.00
2023-02-02T03:51:44.795Z,0.00
2023-02-02T03:52:44.864Z,0.00
2023-02-02T03:53:44.779Z,0.00
2023-02-02T03:54:45.037Z,0.00
2023-02-02T03:55:44.746Z,0.00
2023-02-02T03:56:44.944Z,0.00
2023-02-02T03:57:44.804Z,0.00
2023-02-02T03:58:44.701Z,0.00
2023-02-02T03:59:44.877Z,0.00
2023-02-02T04:00:44.979Z,0.00
2023-02-02T04:01:44.766Z,0.00
2023-02-02T04:02:44.686Z,0.00
2023-02-02T04:03:44.780Z,0.00
2023-02-02T04:04:44.659Z,0.00
2023-02-02T04:05:44.757Z,0.00
2023-02-02T04:06:44.618Z,0.00
2023-02-02T04:07:44.771Z,0.00
2023-02-02T04:08:44.576Z,0.00
2023-02-02T04:09:44.698Z,0.00
2023-02-02T04:10:44.578Z,0.00
2023-02-02T04:11:44.605Z,0.00
2023-02-02T04:12:44.520Z,0.00
2023-02-02T04:13:44.662Z,0.00
2023-02-02T04:14:44.504Z,0.00
2023-02-02T04:15:44.610Z,0.00
2023-02-02T04:16:44.463Z,0.00
2023-02-02T04:17:44.665Z,0.00
2023-02-02T04:18:44.590Z,0.00
2023-02-02T04:19:44.466Z,0.00
2023-02-02T04:20:44.588Z,0.00
2023-02-02T04:21:44.415Z,0.00
2023-02-02T04:22:44.464Z,0.00
2023-02-02T04:23:44.478Z,0.00
2023-02-02T04:24:44.389Z,0.00
2023-02-02T04:25:44.505Z,0.00
2023-02-02T04:26:44.357Z,0.00
2023-02-02T04:27:44.595Z,0.00
2023-02-02T04:28:44.309Z,0.00
2023-02-02T04:29:44.460Z,0.00
2023-02-02T04:30:44.350Z,0.00
2023-02-02T04:31:44.391Z,0.00
2023-02-02T04:32:44.257Z,0.00
2023-02-02T04:33:44.360Z,0.00
2023-02-02T04:34:44.249Z,0.00
2023-02-02T04:35:44.538Z,0.00
2023-02-02T04:36:44.202Z,0.00
2023-02-02T04:37:44.390Z,0.00
2023-02-02T04:38:44.203Z,0.00
2023-02-02T04:39:44.381Z,0.00
2023-02-02T04:40:44.146Z,0.00
2023-02-02T04:41:44.313Z,0.00
2023-02-02T04:42:44.126Z,0.00
2023-02-02T04:43:44.207Z,0.00
2023-02-02T04:44:44.141Z,0.00
2023-02-02T04:45:44.268Z,0.00
2023-02-02T04:46:44.093Z,0.00
2023-02-02T04:47:44.254Z,0.00
2023-02-02T04:48:44.087Z,0.00
2023-02-02T04:49:44.311Z,0.00
2023-02-02T04:50:44.054Z,0.00
2023-02-02T04:51:44.276Z,0.00
2023-02-02T04:52:43.993Z,0.00
2023-02-02T04:53:44.074Z,0.00
2023-02-02T04:54:44.064Z,0.00
2023-02-02T04:55:44.012Z,0.00
2023-02-02T04:56:44.074Z,0.00
2023-02-02T04:57:43.978Z,0.00
2023-02-02T04:58:44.029Z,0.00
2023-02-02T04:59:43.927Z,0.00
2023-02-02T05:00:44.161Z,0.00
2023-02-02T05:01:43.939Z,0.00
2023-02-02T05:02:44.059Z,0.00
2023-02-02T05:03:43.904Z,0.00
2023-02-02T05:04:44.111Z,0.00
2023-02-02T05:05:43.905Z,0.00
2023-02-02T05:06:43.965Z,0.00
2023-02-02T05:07:43.858Z,0.00
2023-02-02T05:08:44.422Z,0.00
2023-02-02T05:09:43.843Z,0.00
2023-02-02T05:10:43.971Z,0.00
2023-02-02T05:11:43.786Z,0.00
2023-02-02T05:12:44.059Z,0.00
2023-02-02T05:13:43.797Z,0.00
2023-02-02T05:14:43.966Z,0.00
2023-02-02T05:15:43.751Z,0.00
2023-02-02T05:16:43.975Z,0.00
2023-02-02T05:17:43.753Z,0.00
2023-02-02T05:18:43.930Z,0.00
2023-02-02T05:19:43.675Z,0.00
2023-02-02T05:20:43.744Z,0.00
2023-02-02T05:21:43.652Z,0.00
2023-02-02T05:22:43.843Z,0.00
2023-02-02T05:23:43.631Z,0.00
2023-02-02T05:24:43.766Z,0.00
2023-02-02T05:25:43.601Z,0.00
2023-02-02T05:26:43.821Z,0.00
2023-02-02T05:27:43.617Z,0.00
2023-02-02T05:28:43.691Z,0.00
2023-02-02T05:29:43.567Z,0.00
2023-02-02T05:30:43.730Z,0.00
2023-02-02T05:31:43.573Z,0.00
2023-02-02T05:32:43.669Z,0.00
2023-02-02T05:33:43.518Z,0.00
2023-02-02T05:34:43.526Z,0.00
2023-02-02T05:35:43.522Z,0.00
2023-02-02T05:36:43.835Z,0.00
2023-02-02T05:37:43.461Z,0.00
2023-02-02T05:38:43.504Z,0.00
2023-02-02T05:39:43.468Z,0.00
2023-02-02T05:40:43.617Z,0.00
2023-02-02T05:41:43.428Z,0.00
2023-02-02T05:42:43.485Z,0.00
2023-02-02T05:43:43.371Z,0.00
2023-02-02T05:44:43.543Z,0.00
2023-02-02T05:45:43.396Z,0.00
2023-02-02T05:46:43.411Z,0.00
2023-02-02T05:47:43.350Z,4.00
2023-02-02T05:48:43.416Z,4.00
2023-02-02T05:49:43.318Z,0.00
2023-02-02T05:50:43.399Z,4.00
2023-02-02T05:51:43.279Z,4.00
2023-02-02T05:52:43.459Z,4.00
2023-02-02T05:53:43.261Z,4.00
2023-02-02T05:54:43.323Z,4.00
2023-02-02T05:55:43.259Z,0.00
2023-02-02T05:56:43.287Z,0.00
2023-02-02T05:57:43.232Z,0.00
2023-02-02T05:58:43.409Z,0.00
2023-02-02T05:59:43.180Z,0.00
2023-02-02T06:00:43.198Z,0.00
2023-02-02T06:01:43.179Z,0.00
2023-02-02T06:02:43.342Z,0.00
2023-02-02T06:03:43.216Z,0.00
2023-02-02T06:04:43.226Z,0.00
2023-02-02T06:05:43.099Z,0.00
2023-02-02T06:06:43.179Z,0.00
2023-02-02T06:07:43.208Z,0.00
2023-02-02T06:08:43.073Z,0.00
2023-02-02T06:09:43.105Z,0.00
2023-02-02T06:10:43.013Z,0.00
2023-02-02T06:11:43.162Z,0.00
2023-02-02T06:12:43.122Z,0.00
2023-02-02T06:13:45.761Z,0.00
2023-02-02T06:14:43.096Z,0.00
2023-02-02T06:15:43.028Z,0.00
2023-02-02T06:16:43.007Z,0.00
2023-02-02T06:17:43.029Z,0.00
2023-02-02T06:18:43.065Z,0.00
2023-02-02T06:19:43.003Z,0.00
2023-02-02T06:20:43.027Z,0.00
2023-02-02T06:21:42.903Z,0.00
2023-02-02T06:22:43.097Z,0.00
2023-02-02T06:23:42.896Z,0.00
2023-02-02T06:24:42.986Z,0.00
2023-02-02T06:25:42.865Z,0.00
2023-02-02T06:26:42.884Z,0.00
2023-02-02T06:27:42.827Z,4.00
2023-02-02T06:28:42.939Z,4.00
2023-02-02T06:29:42.821Z,4.00
2023-02-02T06:30:44.181Z,4.00
2023-02-02T06:31:43.007Z,4.00
2023-02-02T06:32:42.926Z,4.00
2023-02-02T06:33:42.937Z,4.00
2023-02-02T06:34:42.740Z,4.00
2023-02-02T06:35:42.807Z,4.00
2023-02-02T06:36:42.694Z,4.00
2023-02-02T06:37:42.801Z,4.00
2023-02-02T06:38:42.771Z,4.00
2023-02-02T06:39:42.687Z,4.00
2023-02-02T06:40:42.779Z,4.00
2023-02-02T06:41:42.633Z,0.00
2023-02-02T06:42:42.797Z,4.00
2023-02-02T06:43:42.703Z,4.00
2023-02-02T06:44:42.654Z,4.00
2023-02-02T06:45:42.718Z,4.00
2023-02-02T06:46:42.582Z,4.00
2023-02-02T06:47:42.701Z,4.00
2023-02-02T06:48:42.556Z,4.00
2023-02-02T06:49:42.784Z,4.00
2023-02-02T06:50:42.563Z,8.00
2023-02-02T06:51:42.559Z,8.00
2023-02-02T06:52:42.528Z,12.00
2023-02-02T06:53:42.558Z,8.00
2023-02-02T06:54:42.552Z,12.00
2023-02-02T06:55:42.595Z,12.00
2023-02-02T06:56:42.514Z,12.00
2023-02-02T06:57:42.569Z,20.00
2023-02-02T06:58:42.430Z,20.00
2023-02-02T06:59:42.485Z,20.00
2023-02-02T07:00:42.454Z,20.00
2023-02-02T07:01:42.622Z,16.00
2023-02-02T07:02:42.486Z,16.00
2023-02-02T07:03:42.469Z,20.00
2023-02-02T07:04:42.488Z,20.00
2023-02-02T07:05:42.351Z,24.00
2023-02-02T07:06:42.502Z,28.00
2023-02-02T07:07:48.541Z,28.00
2023-02-02T07:08:42.494Z,32.00
2023-02-02T07:09:42.368Z,32.00
2023-02-02T07:11:13.855Z,36.00
2023-02-02T07:11:43.711Z,36.00
2023-02-02T07:12:42.293Z,36.00
2023-02-02T07:13:42.275Z,40.00
2023-02-02T07:14:42.339Z,44.00
2023-02-02T07:15:42.516Z,52.00
2023-02-02T07:16:42.367Z,48.00
2023-02-02T07:17:42.255Z,44.00
2023-02-02T07:18:42.341Z,44.00
2023-02-02T07:19:42.327Z,56.00
2023-02-02T07:20:42.167Z,64.00
2023-02-02T07:21:42.296Z,64.00
2023-02-02T07:22:42.150Z,72.00
2023-02-02T07:23:42.192Z,68.00
2023-02-02T07:24:42.125Z,72.00
2023-02-02T07:25:43.828Z,72.00
2023-02-02T07:26:42.155Z,60.00
2023-02-02T07:27:42.201Z,76.00
2023-02-02T07:28:42.091Z,76.00
2023-02-02T07:29:42.250Z,80.00
2023-02-02T07:30:42.050Z,92.00
2023-02-02T07:31:42.300Z,88.00
2023-02-02T07:32:42.022Z,88.00
2023-02-02T07:33:42.062Z,96.00
2023-02-02T07:34:42.050Z,88.00
2023-02-02T07:35:42.102Z,96.00
2023-02-02T07:36:41.981Z,96.00
2023-02-02T07:37:42.062Z,96.00
2023-02-02T07:38:41.978Z,96.00
2023-02-02T07:39:42.181Z,96.00
2023-02-02T07:40:42.042Z,88.00
2023-02-02T07:41:41.991Z,104.00
2023-02-02T07:42:41.978Z,96.00
2023-02-02T07:43:42.003Z,108.00
2023-02-02T07:44:42.017Z,112.00
2023-02-02T07:45:42.454Z,120.00
2023-02-02T07:46:42.052Z,84.00
2023-02-02T07:47:42.217Z,100.00
2023-02-02T07:48:41.830Z,108.00
2023-02-02T07:49:42.552Z,120.00
2023-02-02T07:50:42.044Z,108.00
2023-02-02T07:51:46.307Z,96.00
2023-02-02T07:52:41.801Z,88.00
2023-02-02T07:53:41.859Z,96.00
2023-02-02T07:54:41.777Z,96.00
2023-02-02T07:55:41.959Z,88.00
2023-02-02T07:56:41.751Z,120.00
2023-02-02T07:57:41.878Z,132.00
2023-02-02T07:58:41.665Z,124.00
2023-02-02T07:59:41.714Z,120.00
2023-02-02T08:00:41.668Z,116.00
2023-02-02T08:01:41.727Z,112.00
2023-02-02T08:02:41.823Z,108.00
2023-02-02T08:03:41.646Z,108.00
2023-02-02T08:04:41.627Z,128.00
2023-02-02T08:05:41.624Z,148.00
2023-02-02T08:06:41.596Z,180.00
2023-02-02T08:07:41.757Z,184.00
2023-02-02T08:08:41.550Z,204.00
2023-02-02T08:09:41.542Z,208.00
2023-02-02T08:10:41.522Z,216.00
2023-02-02T08:11:41.598Z,284.00
2023-02-02T08:12:41.527Z,264.00
2023-02-02T08:13:41.573Z,312.00
2023-02-02T08:14:41.576Z,280.00
2023-02-02T08:15:41.572Z,272.00
2023-02-02T08:16:41.486Z,232.00
2023-02-02T08:17:41.625Z,228.00
2023-02-02T08:18:41.471Z,192.00
2023-02-02T08:19:41.462Z,196.00
2023-02-02T08:20:41.403Z,248.00
2023-02-02T08:21:41.401Z,204.00
2023-02-02T08:22:41.380Z,216.00
2023-02-02T08:23:41.404Z,280.00
2023-02-02T08:24:41.369Z,280.00
2023-02-02T08:25:41.512Z,304.00
2023-02-02T08:26:41.404Z,308.00
2023-02-02T08:27:41.302Z,324.00
2023-02-02T08:28:41.407Z,280.00
2023-02-02T08:29:41.356Z,228.00
2023-02-02T08:30:41.484Z,212.00
2023-02-02T08:31:41.607Z,212.00
2023-02-02T08:32:41.227Z,240.00
2023-02-02T08:33:41.446Z,240.00
2023-02-02T08:34:41.304Z,240.00
2023-02-02T08:35:41.197Z,328.00
2023-02-02T08:36:41.305Z,428.00
2023-02-02T08:37:41.212Z,368.00
2023-02-02T08:38:41.208Z,364.00
2023-02-02T08:39:41.244Z,332.00
2023-02-02T08:40:41.116Z,324.00
2023-02-02T08:41:41.140Z,292.00
2023-02-02T08:42:41.096Z,288.00
2023-02-02T08:43:41.220Z,280.00
2023-02-02T08:45:01.506Z,284.00
2023-02-02T08:46:05.982Z,372.00
2023-02-02T08:46:41.194Z,428.00
2023-02-02T08:47:41.017Z,512.00
2023-02-02T08:48:41.073Z,712.00
2023-02-02T08:49:41.015Z,796.00
2023-02-02T08:50:41.089Z,932.00
2023-02-02T08:51:40.971Z,1060.00
2023-02-02T08:52:41.095Z,848.00
2023-02-02T08:53:40.970Z,824.00
2023-02-02T08:54:40.999Z,872.00
2023-02-02T08:55:40.933Z,800.00
2023-02-02T08:56:41.094Z,756.00
2023-02-02T08:57:40.899Z,676.00
2023-02-02T08:58:41.031Z,644.00
2023-02-02T08:59:40.855Z,708.00
2023-02-02T09:00:41.014Z,836.00
2023-02-02T09:01:40.877Z,720.00
2023-02-02T09:02:40.983Z,752.00
2023-02-02T09:03:40.817Z,836.00
2023-02-02T09:04:40.968Z,824.00
2023-02-02T09:05:40.804Z,616.00
2023-02-02T09:06:40.892Z,460.00
2023-02-02T09:07:40.781Z,372.00
2023-02-02T09:08:40.943Z,360.00
2023-02-02T09:09:40.803Z,340.00
2023-02-02T09:10:40.760Z,372.00
2023-02-02T09:11:40.896Z,352.00
2023-02-02T09:12:40.724Z,368.00
2023-02-02T09:13:40.811Z,316.00
2023-02-02T09:14:40.692Z,356.00
2023-02-02T09:15:40.747Z,336.00
2023-02-02T09:16:40.807Z,324.00
2023-02-02T09:17:40.672Z,300.00
2023-02-02T09:18:40.675Z,344.00
2023-02-02T09:19:40.722Z,284.00
2023-02-02T09:20:40.609Z,232.00
2023-02-02T09:21:40.743Z,204.00
2023-02-02T09:22:40.664Z,200.00
2023-02-02T09:23:40.576Z,232.00
2023-02-02T09:24:40.547Z,284.00
2023-02-02T09:25:40.592Z,292.00
2023-02-02T09:26:40.812Z,300.00
2023-02-02T09:27:40.567Z,276.00
2023-02-02T09:28:40.570Z,312.00
2023-02-02T09:29:40.513Z,324.00
2023-02-02T09:30:40.675Z,344.00
2023-02-02T09:31:40.563Z,376.00
2023-02-02T09:32:40.971Z,344.00
2023-02-02T09:33:40.731Z,364.00
2023-02-02T09:34:41.091Z,436.00
2023-02-02T09:35:40.730Z,416.00
2023-02-02T09:36:40.446Z,488.00
2023-02-02T09:37:40.686Z,480.00
2023-02-02T09:38:40.553Z,444.00
2023-02-02T09:39:40.529Z,464.00
2023-02-02T09:40:40.558Z,560.00
2023-02-02T09:41:40.332Z,512.00
2023-02-02T09:42:40.489Z,584.00
2023-02-02T09:43:40.476Z,656.00
2023-02-02T09:44:40.349Z,736.00
2023-02-02T09:45:40.452Z,796.00
2023-02-02T09:46:40.324Z,844.00
2023-02-02T09:47:40.396Z,1128.00
2023-02-02T09:48:40.297Z,1016.00
2023-02-02T09:49:40.330Z,736.00
2023-02-02T09:50:40.271Z,676.00
2023-02-02T09:51:40.318Z,700.00
2023-02-02T09:52:40.208Z,680.00
2023-02-02T09:53:53.185Z,632.00
2023-02-02T09:54:40.228Z,612.00
2023-02-02T09:55:40.269Z,612.00
2023-02-02T09:56:40.175Z,584.00
2023-02-02T09:57:40.315Z,596.00
2023-02-02T09:58:40.137Z,788.00
2023-02-02T09:59:40.183Z,796.00
2023-02-02T10:00:40.134Z,804.00
2023-02-02T10:01:40.265Z,948.00
2023-02-02T10:02:40.109Z,796.00
2023-02-02T10:03:40.248Z,552.00
2023-02-02T10:04:40.075Z,480.00
2023-02-02T10:05:40.275Z,408.00
2023-02-02T10:06:40.056Z,540.00
2023-02-02T10:07:40.134Z,508.00
2023-02-02T10:09:07.030Z,468.00
2023-02-02T10:09:40.901Z,496.00
2023-02-02T10:10:40.087Z,536.00
2023-02-02T10:11:40.110Z,632.00
2023-02-02T10:27:23.997Z,784.00
2023-02-02T10:28:25.422Z,932.00
2023-02-02T10:29:25.676Z,920.00
2023-02-02T10:30:25.933Z,896.00
2023-02-02T10:31:25.345Z,840.00
2023-02-02T10:32:25.347Z,960.00
2023-02-02T10:33:24.864Z,972.00
2023-02-02T10:34:24.834Z,908.00
2023-02-02T10:35:25.802Z,868.00
2023-02-02T10:36:25.346Z,672.00
2023-02-02T10:37:25.061Z,660.00
2023-02-02T10:38:25.561Z,720.00
2023-02-02T10:39:24.825Z,672.00
2023-02-02T10:40:25.013Z,796.00
2023-02-02T10:41:24.665Z,800.00
2023-02-02T10:42:24.693Z,888.00
2023-02-02T10:43:24.748Z,1036.00
2023-02-02T10:44:24.823Z,1168.00
2023-02-02T10:45:24.663Z,1128.00
2023-02-02T10:46:25.132Z,1372.00
2023-02-02T10:47:24.695Z,1444.00
2023-02-02T10:48:24.762Z,1148.00
2023-02-02T10:49:24.570Z,1132.00
2023-02-02T10:50:25.263Z,1368.00
2023-02-02T10:51:24.634Z,1324.00
2023-02-02T10:52:24.668Z,1276.00
2023-02-02T10:53:24.535Z,1328.00
2023-02-02T10:54:24.639Z,1292.00
2023-02-02T10:55:24.538Z,1400.00
2023-02-02T10:56:24.738Z,1904.00
2023-02-02T10:57:24.512Z,1584.00
2023-02-02T10:58:24.712Z,1848.00
2023-02-02T10:59:24.473Z,1820.00
2023-02-02T11:00:25.441Z,1496.00
2023-02-02T11:01:24.529Z,1272.00
2023-02-02T11:02:25.435Z,1264.00
2023-02-02T11:03:24.694Z,1436.00
2023-02-02T11:04:24.454Z,1100.00
2023-02-02T11:05:24.443Z,1004.00
2023-02-02T11:06:24.398Z,952.00
2023-02-02T11:07:24.380Z,876.00
2023-02-02T11:08:24.426Z,848.00
2023-02-02T11:09:24.356Z,728.00
2023-02-02T11:10:24.933Z,904.00
2023-02-02T11:11:24.349Z,976.00
2023-02-02T11:12:24.484Z,960.00
2023-02-02T11:13:24.532Z,744.00
2023-02-02T11:14:24.398Z,644.00
2023-02-02T11:15:24.453Z,780.00
2023-02-02T11:16:28.484Z,720.00
2023-02-02T11:17:24.362Z,728.00
2023-02-02T11:18:24.296Z,604.00
2023-02-02T11:19:24.915Z,604.00
2023-02-02T11:20:25.071Z,652.00
2023-02-02T11:21:24.210Z,620.00
2023-02-02T11:22:24.246Z,664.00
2023-02-02T11:23:24.126Z,544.00
2023-02-02T11:24:24.294Z,504.00
2023-02-02T11:25:24.123Z,536.00
2023-02-02T11:26:24.202Z,716.00
2023-02-02T11:27:24.288Z,788.00
2023-02-02T11:28:24.198Z,828.00
2023-02-02T11:29:24.043Z,648.00
2023-02-02T11:30:24.497Z,540.00
2023-02-02T11:31:24.088Z,448.00
2023-02-02T11:32:24.117Z,440.00
2023-02-02T11:33:24.044Z,500.00
2023-02-02T11:34:24.082Z,528.00
2023-02-02T11:35:23.967Z,568.00
2023-02-02T11:36:24.033Z,636.00
2023-02-02T11:37:24.027Z,688.00
2023-02-02T11:38:24.012Z,564.00
2023-02-02T11:39:24.043Z,572.00
2023-02-02T11:40:24.591Z,620.00
2023-02-02T11:41:23.986Z,656.00
2023-02-02T11:42:23.995Z,768.00
2023-02-02T11:43:23.891Z,556.00
2023-02-02T11:44:23.935Z,692.00
2023-02-02T11:45:23.849Z,492.00
2023-02-02T11:46:23.908Z,416.00
2023-02-02T11:47:23.862Z,460.00
2023-02-02T11:48:23.990Z,564.00
2023-02-02T11:49:23.800Z,440.00
2023-02-02T11:50:24.305Z,392.00
2023-02-02T11:51:23.801Z,492.00
2023-02-02T11:52:23.892Z,508.00
2023-02-02T11:53:23.784Z,452.00
2023-02-02T11:54:23.813Z,456.00
2023-02-02T11:55:23.726Z,424.00
2023-02-02T11:56:23.789Z,396.00
2023-02-02T11:57:23.817Z,464.00
2023-02-02T11:58:23.851Z,436.00
2023-02-02T11:59:23.737Z,512.00
2023-02-02T12:00:24.207Z,452.00
2023-02-02T12:01:23.673Z,468.00
2023-02-02T12:02:24.236Z,484.00
2023-02-02T12:03:23.736Z,500.00
2023-02-02T12:04:23.772Z,536.00
2023-02-02T12:05:23.691Z,492.00
2023-02-02T12:06:23.620Z,500.00
2023-02-02T12:07:23.654Z,676.00
2023-02-02T12:08:23.646Z,752.00
2023-02-02T12:09:23.567Z,728.00
2023-02-02T12:10:23.978Z,760.00
2023-02-02T12:11:23.514Z,712.00
2023-02-02T12:12:23.778Z,560.00
2023-02-02T12:13:23.480Z,548.00
2023-02-02T12:14:23.744Z,540.00
2023-02-02T12:15:23.889Z,548.00
2023-02-02T12:16:23.629Z,544.00
2023-02-02T12:17:23.658Z,520.00
2023-02-02T12:18:23.613Z,496.00
2023-02-02T12:19:23.430Z,484.00
2023-02-02T12:20:23.848Z,500.00
2023-02-02T12:21:23.395Z,552.00
2023-02-02T12:22:23.542Z,484.00
2023-02-02T12:23:23.383Z,440.00
2023-02-02T12:24:23.565Z,328.00
2023-02-02T12:25:23.799Z,440.00
2023-02-02T12:26:23.598Z,436.00
2023-02-02T12:27:23.592Z,440.00
2023-02-02T12:28:23.410Z,420.00
2023-02-02T12:29:23.282Z,464.00
2023-02-02T12:30:23.893Z,496.00
2023-02-02T12:31:23.379Z,656.00
2023-02-02T12:32:23.482Z,716.00
2023-02-02T12:33:23.287Z,588.00
2023-02-02T12:34:23.390Z,632.00
2023-02-02T12:35:23.242Z,564.00
2023-02-02T12:36:23.446Z,624.00
2023-02-02T12:37:24.030Z,696.00
2023-02-02T12:38:23.298Z,716.00
2023-02-02T12:39:23.212Z,868.00
2023-02-02T12:40:23.524Z,896.00
2023-02-02T12:41:23.263Z,888.00
2023-02-02T12:42:23.373Z,816.00
2023-02-02T12:43:23.240Z,844.00
2023-02-02T12:44:23.374Z,736.00
2023-02-02T12:45:23.133Z,760.00
2023-02-02T12:46:23.162Z,764.00
2023-02-02T12:47:23.304Z,808.00
2023-02-02T12:48:23.172Z,700.00
2023-02-02T12:49:23.242Z,708.00
2023-02-02T12:50:23.407Z,748.00
2023-02-02T12:51:23.069Z,800.00
2023-02-02T12:52:23.191Z,820.00
2023-02-02T12:53:22.989Z,912.00
2023-02-02T12:54:34.743Z,944.00
2023-02-02T12:55:23.129Z,1036.00
2023-02-02T12:56:22.972Z,1032.00
2023-02-02T12:57:23.017Z,1096.00
2023-02-02T12:58:22.999Z,1160.00
2023-02-02T12:59:23.050Z,1068.00
2023-02-02T13:00:23.430Z,1100.00
2023-02-02T13:01:23.134Z,968.00
2023-02-02T13:02:23.014Z,888.00
2023-02-02T13:03:23.179Z,696.00
2023-02-02T13:04:22.919Z,892.00
2023-02-02T13:05:23.034Z,864.00
2023-02-02T13:06:22.878Z,804.00
2023-02-02T13:07:22.952Z,924.00
2023-02-02T13:08:22.841Z,1140.00
2023-02-02T13:09:22.873Z,1128.00